createdAt,value
2023-01-04T00:01:30.920Z,100937.43
2023-01-04T00:03:57.706Z,100938.66
2023-01-04T00:06:24.423Z,100942.64
2023-01-04T00:08:51.058Z,100946.39
2023-01-04T00:11:19.710Z,100949.88
2023-01-04T00:13:47.950Z,100951.14
2023-01-04T00:16:17.035Z,100952.77
2023-01-04T00:18:43.734Z,100951.69
2023-01-04T00:21:12.397Z,100954.23
2023-01-04T00:23:39.679Z,100956.06
2023-01-04T00:26:08.724Z,100954.85
2023-01-04T00:28:35.422Z,100955.23
2023-01-04T00:31:03.883Z,100955.73
2023-01-04T00:33:31.195Z,100955.55
2023-01-04T00:36:05.324Z,100962.92
2023-01-04T00:38:32.823Z,100959.73
2023-01-04T00:41:00.016Z,100957.46
2023-01-04T00:43:26.825Z,100957.98
2023-01-04T00:45:53.927Z,100956.39
2023-01-04T00:48:20.962Z,100957.45
2023-01-04T00:50:48.306Z,100960.73
2023-01-04T00:53:15.489Z,100964.19
2023-01-04T00:55:42.227Z,100962.40
2023-01-04T00:58:08.885Z,100961.54
2023-01-04T01:00:35.673Z,100960.68
2023-01-04T01:03:02.694Z,100961.50
2023-01-04T01:05:29.662Z,100963.67
2023-01-04T01:07:56.733Z,100959.23
2023-01-04T01:10:23.348Z,100953.84
2023-01-04T01:12:50.029Z,100952.03
2023-01-04T01:15:16.803Z,100947.77
2023-01-04T01:17:43.483Z,100950.15
2023-01-04T01:20:10.403Z,100947.84
2023-01-04T01:22:37.088Z,100946.15
2023-01-04T01:25:04.135Z,100944.73
2023-01-04T01:27:30.772Z,100941.04
2023-01-04T01:29:57.456Z,100945.77
2023-01-04T01:32:24.098Z,100943.45
2023-01-04T01:34:50.829Z,100951.27
2023-01-04T01:37:17.518Z,100952.31
2023-01-04T01:39:44.188Z,100949.81
2023-01-04T01:42:19.195Z,100952.20
2023-01-04T01:44:45.893Z,100956.52
2023-01-04T01:47:17.372Z,100960.80
2023-01-04T01:49:44.046Z,100956.70
2023-01-04T01:52:13.484Z,100952.92
2023-01-04T01:55:10.492Z,100954.86
2023-01-04T01:57:37.824Z,100953.51
2023-01-04T02:00:09.517Z,100960.85
2023-01-04T02:03:04.901Z,100959.39
2023-01-04T02:05:31.740Z,100958.65
2023-01-04T02:07:58.978Z,100960.91
2023-01-04T02:10:25.650Z,100957.66
2023-01-04T02:12:52.929Z,100956.02
2023-01-04T02:15:19.860Z,100952.64
2023-01-04T02:17:56.604Z,100953.95
2023-01-04T02:20:33.066Z,100948.95
2023-01-04T02:23:18.767Z,100953.13
2023-01-04T02:26:10.479Z,100945.61
2023-01-04T02:29:05.938Z,100947.80
2023-01-04T02:31:45.487Z,100950.52
2023-01-04T02:34:37.259Z,100947.79
2023-01-04T02:37:22.433Z,100950.55
2023-01-04T02:39:55.939Z,100949.17
2023-01-04T02:42:56.040Z,100945.80
2023-01-04T02:45:25.840Z,100946.08
2023-01-04T02:48:11.304Z,100944.65
2023-01-04T02:50:49.121Z,100947.83
2023-01-04T02:53:18.905Z,100943.75
2023-01-04T02:56:04.060Z,100943.68
2023-01-04T02:59:04.502Z,100942.82
2023-01-04T03:02:11.888Z,100941.30
2023-01-04T03:04:57.752Z,100943.00
2023-01-04T03:07:42.208Z,100941.06
2023-01-04T03:10:13.814Z,100941.30
2023-01-04T03:12:51.233Z,100937.20
2023-01-04T03:15:26.643Z,100943.98
2023-01-04T03:17:56.476Z,100946.23
2023-01-04T03:20:23.474Z,100945.36
2023-01-04T03:23:24.179Z,100943.55
2023-01-04T03:26:13.744Z,100942.87
2023-01-04T03:28:59.253Z,100942.08
2023-01-04T03:32:08.804Z,100941.55
2023-01-04T03:34:54.249Z,100939.81
2023-01-04T03:37:42.940Z,100936.06
2023-01-04T03:40:45.866Z,100940.86
2023-01-04T03:43:39.513Z,100948.77
2023-01-04T03:46:29.509Z,100950.23
2023-01-04T03:49:02.829Z,100953.11
2023-01-04T03:51:31.069Z,100951.54
2023-01-04T03:54:07.687Z,100947.84
2023-01-04T03:56:36.216Z,100944.60
2023-01-04T03:59:03.015Z,100948.19
2023-01-04T04:01:29.858Z,100946.84
2023-01-04T04:04:15.579Z,100954.31
2023-01-04T04:07:01.127Z,100950.70
2023-01-04T04:09:27.845Z,100949.77
2023-01-04T04:11:54.631Z,100953.05
2023-01-04T04:14:21.290Z,100955.16
2023-01-04T04:16:48.009Z,100950.61
2023-01-04T04:19:15.080Z,100955.39
2023-01-04T04:21:41.930Z,100953.56
2023-01-04T04:24:11.676Z,100950.55
2023-01-04T04:26:38.361Z,100945.70
2023-01-04T04:29:04.993Z,100946.23
2023-01-04T04:32:57.840Z,100942.85
2023-01-04T04:35:24.525Z,100942.06
2023-01-04T04:37:51.195Z,100946.83
2023-01-04T04:40:36.703Z,100945.54
2023-01-04T04:43:03.379Z,100950.89
2023-01-04T04:45:30.063Z,100959.86
2023-01-04T04:47:56.785Z,100962.34
2023-01-04T04:50:23.511Z,100962.51
2023-01-04T04:52:55.739Z,100961.86
2023-01-04T04:55:23.362Z,100961.46
2023-01-04T04:57:49.999Z,100958.56
2023-01-04T05:00:16.912Z,100959.55
2023-01-04T05:02:43.970Z,100968.09
2023-01-04T05:05:10.730Z,100961.08
2023-01-04T05:07:37.449Z,100962.98
2023-01-04T05:10:04.687Z,100962.45
2023-01-04T05:12:54.320Z,100963.02
2023-01-04T05:15:24.396Z,100959.66
2023-01-04T05:17:51.024Z,100965.47
2023-01-04T05:20:17.825Z,100968.21
2023-01-04T05:22:44.614Z,100966.16
2023-01-04T05:25:12.364Z,100973.75
2023-01-04T05:27:39.122Z,100976.60
2023-01-04T05:30:24.892Z,100976.92
2023-01-04T05:32:51.535Z,100982.83
2023-01-04T05:35:18.195Z,100981.61
2023-01-04T05:37:44.853Z,100985.02
2023-01-04T05:40:11.562Z,100983.70
2023-01-04T05:42:38.226Z,100983.71
2023-01-04T05:45:05.628Z,100984.80
2023-01-04T05:47:32.393Z,100985.66
2023-01-04T05:49:59.132Z,100984.48
2023-01-04T05:52:26.092Z,100986.91
2023-01-04T05:54:52.791Z,100988.52
2023-01-04T05:57:19.472Z,100989.14
2023-01-04T05:59:46.294Z,100988.81
2023-01-04T06:02:15.243Z,100988.30
2023-01-04T06:04:41.989Z,100997.40
2023-01-04T06:07:08.657Z,100991.80
2023-01-04T06:09:35.308Z,100994.09
2023-01-04T06:12:02.022Z,100996.23
2023-01-04T06:14:28.667Z,100994.23
2023-01-04T06:16:55.388Z,100997.52
2023-01-04T06:19:22.063Z,100993.64
2023-01-04T06:21:48.733Z,100995.28
2023-01-04T06:24:15.434Z,101000.58
2023-01-04T06:26:42.127Z,100999.98
2023-01-04T06:29:08.792Z,101006.03
2023-01-04T06:31:35.571Z,101006.50
2023-01-04T06:34:02.445Z,101008.58
2023-01-04T06:36:29.416Z,101011.44
2023-01-04T06:39:00.181Z,101010.95
2023-01-04T06:41:27.168Z,101013.23
2023-01-04T06:43:53.784Z,101008.73
2023-01-04T06:46:20.591Z,101010.84
2023-01-04T06:48:47.315Z,101012.50
2023-01-04T06:51:14.080Z,101011.79
2023-01-04T06:53:41.445Z,101017.14
2023-01-04T06:56:09.412Z,101015.64
2023-01-04T06:58:36.657Z,101012.89
2023-01-04T07:01:03.593Z,101010.84
2023-01-04T07:03:30.447Z,101011.40
2023-01-04T07:05:57.074Z,101008.77
2023-01-04T07:08:23.730Z,101010.09
2023-01-04T07:10:50.442Z,101012.08
2023-01-04T07:13:17.181Z,101014.42
2023-01-04T07:15:44.032Z,101011.83
2023-01-04T07:18:10.979Z,101006.07
2023-01-04T07:20:38.168Z,101008.52
2023-01-04T07:23:05.630Z,101009.01
2023-01-04T07:25:32.395Z,101013.05
2023-01-04T07:27:59.177Z,101015.08
2023-01-04T07:30:25.830Z,101018.33
2023-01-04T07:32:53.703Z,101019.63
2023-01-04T07:35:20.724Z,101022.67
2023-01-04T07:37:52.147Z,101025.66
2023-01-04T07:40:22.700Z,101025.45
2023-01-04T07:42:54.879Z,101027.50
2023-01-04T07:45:21.606Z,101027.85
2023-01-04T07:47:48.321Z,101028.23
2023-01-04T07:50:15.113Z,101035.85
2023-01-04T07:52:41.806Z,101032.99
2023-01-04T07:55:09.060Z,101032.95
2023-01-04T07:57:35.800Z,101030.15
2023-01-04T08:00:02.916Z,101031.36
2023-01-04T08:02:39.086Z,101032.78
2023-01-04T08:05:06.553Z,101035.17
2023-01-04T08:07:33.322Z,101037.33
2023-01-04T08:09:59.960Z,101036.98
2023-01-04T08:12:26.704Z,101038.05
2023-01-04T08:14:53.357Z,101036.70
2023-01-04T08:17:20.045Z,101045.91
2023-01-04T08:19:46.935Z,101048.70
2023-01-04T08:22:14.289Z,101048.61
2023-01-04T08:24:40.981Z,101047.94
2023-01-04T08:27:08.581Z,101043.96
2023-01-04T08:29:35.573Z,101044.48
2023-01-04T08:32:02.550Z,101049.00
2023-01-04T08:34:29.999Z,101049.34
2023-01-04T08:36:56.721Z,101050.09
2023-01-04T08:39:23.440Z,101049.73
2023-01-04T08:42:00.393Z,101051.27
2023-01-04T08:44:28.191Z,101046.77
2023-01-04T08:46:55.204Z,101048.36
2023-01-04T08:49:22.791Z,101041.83
2023-01-04T08:51:49.493Z,101041.35
2023-01-04T08:54:16.316Z,101044.55
2023-01-04T08:56:43.090Z,101045.66
2023-01-04T08:59:10.628Z,101045.64
2023-01-04T09:01:37.425Z,101048.39
2023-01-04T09:04:04.304Z,101050.09
2023-01-04T09:06:31.295Z,101046.75
2023-01-04T09:08:58.105Z,101038.95
2023-01-04T09:11:24.989Z,101039.91
2023-01-04T09:14:06.900Z,101035.63
2023-01-04T09:16:34.612Z,101041.66
2023-01-04T09:19:01.267Z,101039.31
2023-01-04T09:21:28.414Z,101040.73
2023-01-04T09:23:56.857Z,101048.16
2023-01-04T09:26:23.761Z,101050.34
2023-01-04T09:28:51.523Z,101047.05
2023-01-04T09:31:19.700Z,101047.84
2023-01-04T09:36:33.350Z,101029.08
2023-01-04T09:38:59.973Z,101026.44
2023-01-04T09:41:28.454Z,101023.91
2023-01-04T09:43:57.182Z,101023.80
2023-01-04T09:46:29.001Z,101021.23
2023-01-04T09:49:04.930Z,101016.70
2023-01-04T09:51:33.655Z,101016.60
2023-01-04T09:54:12.361Z,101012.52
2023-01-04T09:56:39.028Z,101002.55
2023-01-04T09:59:12.511Z,100999.95
2023-01-04T10:01:43.913Z,100997.19
2023-01-04T10:04:42.163Z,101001.96
2023-01-04T10:07:18.411Z,101003.56
2023-01-04T10:09:45.081Z,101006.27
2023-01-04T10:12:59.942Z,101004.36
2023-01-04T10:15:37.274Z,101001.81
2023-01-04T10:21:45.519Z,101000.48
2023-01-04T12:18:52.561Z,100994.28
2023-01-04T12:21:24.120Z,100997.15
2023-01-04T12:23:53.788Z,100996.30
2023-01-04T12:26:20.707Z,100996.63
2023-01-04T12:28:49.259Z,100993.71
2023-01-04T12:31:19.912Z,100993.70
2023-01-04T12:34:14.118Z,101000.05
2023-01-04T12:36:41.209Z,100997.39
2023-01-04T12:39:14.206Z,101003.73
2023-01-04T12:41:40.797Z,101006.67
2023-01-04T12:44:36.945Z,101000.14
2023-01-04T12:47:43.275Z,100997.51
2023-01-04T12:50:18.398Z,100991.98
2023-01-04T12:55:43.788Z,100994.23
2023-01-04T12:59:23.503Z,100993.41
2023-01-04T13:01:23.930Z,100994.56
2023-01-04T13:03:58.017Z,100996.86
2023-01-04T13:06:28.956Z,100994.62
2023-01-04T13:08:55.762Z,100993.67
2023-01-04T13:11:33.345Z,100997.63
2023-01-04T13:14:08.682Z,100994.02
2023-01-04T13:16:44.678Z,100992.88
2023-01-04T13:19:26.471Z,100993.98
2023-01-04T13:21:53.180Z,100996.23
2023-01-04T13:24:27.459Z,100998.34
2023-01-04T13:26:54.637Z,101005.16
2023-01-04T13:29:25.433Z,101006.83
2023-01-04T13:32:11.909Z,101011.70
2023-01-04T13:34:41.389Z,101012.65
2023-01-04T13:37:13.966Z,101017.33
2023-01-04T13:48:22.411Z,101019.73
2023-01-04T13:51:01.555Z,101019.41
2023-01-04T13:53:30.084Z,101020.12
2023-01-04T13:56:00.391Z,101014.89
2023-01-04T13:58:31.126Z,101013.27
2023-01-04T14:04:21.522Z,101004.20
2023-01-04T14:06:49.410Z,101001.36
2023-01-04T14:09:22.914Z,100995.79
2023-01-04T14:12:09.354Z,100992.20
2023-01-04T14:14:58.893Z,100994.81
2023-01-04T14:17:36.117Z,101000.91
2023-01-04T14:20:05.758Z,100998.77
2023-01-04T14:22:33.446Z,100994.66
2023-01-04T14:25:10.500Z,100988.98
2023-01-04T14:27:43.014Z,100994.99
2023-01-04T14:30:19.681Z,100994.23
2023-01-04T14:33:04.287Z,100988.66
2023-01-04T14:35:31.991Z,100985.86
2023-01-04T14:38:03.945Z,100982.03
2023-01-04T14:40:34.403Z,100987.61
2023-01-04T14:43:02.060Z,100985.33
2023-01-04T14:45:29.677Z,100986.95
2023-01-04T14:47:57.080Z,100983.50
2023-01-04T14:50:24.720Z,100983.27
2023-01-04T14:52:52.707Z,100981.04
2023-01-04T14:55:20.565Z,100979.36
2023-01-04T14:57:48.169Z,100981.04
2023-01-04T15:00:19.469Z,100975.31
2023-01-04T15:02:51.086Z,100975.06
2023-01-04T15:05:20.662Z,100979.17
2023-01-04T15:07:49.230Z,100975.95
2023-01-04T15:10:23.945Z,100976.48
2023-01-04T15:12:51.745Z,100975.48
2023-01-04T15:15:19.880Z,100970.31
2023-01-04T15:17:47.774Z,100970.31
2023-01-04T15:20:16.012Z,100974.77
2023-01-04T15:22:46.887Z,100969.55
2023-01-04T15:25:14.834Z,100968.68
2023-01-04T15:27:43.277Z,100974.52
2023-01-04T15:30:14.877Z,100969.45
2023-01-04T15:32:43.703Z,100957.69
2023-01-04T15:35:11.516Z,100955.53
2023-01-04T15:37:39.072Z,100955.18
2023-01-04T15:40:07.211Z,100951.72
2023-01-04T15:42:53.435Z,100947.45
2023-01-04T15:45:23.286Z,100945.45
2023-01-04T15:47:51.455Z,100946.78
2023-01-04T15:50:20.142Z,100950.02
2023-01-04T15:52:50.987Z,100948.20
2023-01-04T15:55:18.611Z,100951.54
2023-01-04T16:01:42.012Z,100944.11
2023-01-04T16:04:14.268Z,100942.30
2023-01-04T16:06:42.395Z,100936.58
2023-01-04T16:09:10.004Z,100933.13
2023-01-04T16:11:57.751Z,100930.80
2023-01-04T16:14:25.376Z,100934.81
2023-01-04T16:16:52.832Z,100932.92
2023-01-04T16:19:20.418Z,100932.17
2023-01-04T16:21:48.067Z,100934.00
2023-01-04T16:24:37.425Z,100931.20
2023-01-04T16:27:03.762Z,100929.73
2023-01-04T16:29:31.232Z,100921.01
2023-01-04T16:31:59.442Z,100911.98
2023-01-04T16:34:27.315Z,100911.59
2023-01-04T16:36:55.117Z,100906.10
2023-01-04T16:39:34.328Z,100900.08
2023-01-04T16:42:11.306Z,100900.52
2023-01-04T16:44:39.292Z,100904.14
2023-01-04T16:47:07.028Z,100898.89
2023-01-04T16:49:34.736Z,100892.33
2023-01-04T16:52:03.238Z,100891.99
2023-01-04T16:54:30.879Z,100889.44
2023-01-04T16:56:59.564Z,100888.38
2023-01-04T16:59:27.522Z,100883.10
2023-01-04T17:01:58.109Z,100886.71
2023-01-04T17:04:26.456Z,100881.01
2023-01-04T17:06:55.509Z,100875.37
2023-01-04T17:09:22.995Z,100871.19
2023-01-04T17:15:08.043Z,100863.52
2023-01-04T17:17:38.506Z,100858.05
2023-01-04T17:20:08.283Z,100861.77
2023-01-04T17:22:35.993Z,100856.78
2023-01-04T17:25:04.468Z,100851.51
2023-01-04T17:27:32.034Z,100849.61
2023-01-04T17:30:00.895Z,100850.29
2023-01-04T17:32:29.132Z,100839.84
2023-01-04T17:34:58.626Z,100837.92
2023-01-04T17:37:26.865Z,100833.06
2023-01-04T17:39:55.554Z,100833.22
2023-01-04T17:42:23.534Z,100831.55
2023-01-04T17:44:51.901Z,100834.61
2023-01-04T17:47:20.075Z,100836.92
2023-01-04T17:49:47.617Z,100837.35
2023-01-04T17:52:22.037Z,100834.52
2023-01-04T17:54:49.863Z,100833.71
2023-01-04T17:57:17.486Z,100831.61
2023-01-04T17:59:45.025Z,100827.48
2023-01-04T18:02:13.806Z,100824.25
2023-01-04T20:15:13.443Z,100709.56
2023-01-04T20:17:40.333Z,100698.75
2023-01-04T20:20:07.174Z,100703.03
2023-01-04T20:22:33.974Z,100700.05
2023-01-04T20:25:00.643Z,100687.34
2023-01-04T20:27:27.286Z,100680.12
2023-01-04T20:29:53.958Z,100677.80
2023-01-04T20:32:20.645Z,100671.89
2023-01-04T20:34:47.299Z,100670.25
2023-01-04T20:37:13.969Z,100666.77
2023-01-04T20:39:40.608Z,100663.21
2023-01-04T20:42:26.010Z,100656.42
2023-01-04T20:44:52.688Z,100646.52
2023-01-04T20:47:19.357Z,100646.11
2023-01-04T20:49:49.135Z,100650.89
2023-01-04T20:52:15.915Z,100642.06
2023-01-04T20:54:43.402Z,100644.61
2023-01-04T20:57:10.140Z,100638.48
2023-01-04T20:59:36.827Z,100641.55
2023-01-04T21:02:03.762Z,100629.09
2023-01-04T21:04:31.985Z,100635.05
2023-01-04T21:06:58.740Z,100625.61
2023-01-04T21:09:25.582Z,100617.73
2023-01-04T21:11:52.253Z,100609.55
2023-01-04T21:14:19.063Z,100600.28
2023-01-04T21:16:45.727Z,100595.97
2023-01-04T21:19:12.400Z,100596.60
2023-01-04T21:21:39.262Z,100588.86
2023-01-04T21:24:06.582Z,100583.27
2023-01-04T21:26:33.298Z,100577.95
2023-01-04T21:29:00.013Z,100570.64
2023-01-04T21:31:26.777Z,100565.13
2023-01-04T21:33:53.850Z,100563.63
2023-01-04T21:36:24.777Z,100563.06
2023-01-04T21:38:52.601Z,100556.45
2023-01-04T21:41:19.335Z,100543.80
2023-01-04T21:43:46.071Z,100536.35
2023-01-04T21:46:14.997Z,100531.90
2023-01-04T21:48:42.505Z,100525.27
2023-01-04T21:51:09.374Z,100522.64
2023-01-04T21:53:36.838Z,100522.84
2023-01-04T21:56:17.329Z,100516.26
2023-01-04T21:58:44.154Z,100522.34
2023-01-04T22:01:11.821Z,100516.95
2023-01-04T22:03:39.053Z,100507.73
2023-01-04T22:06:06.028Z,100502.91
2023-01-04T22:08:32.731Z,100494.33
2023-01-04T22:10:59.484Z,100489.58
2023-01-04T22:13:26.230Z,100480.20
2023-01-04T22:15:53.152Z,100481.09
2023-01-04T22:18:19.917Z,100472.11
2023-01-04T22:20:46.761Z,100466.27
2023-01-04T22:23:13.588Z,100456.33
2023-01-04T22:25:40.321Z,100451.05
2023-01-04T22:28:06.983Z,100455.72
2023-01-04T22:30:33.698Z,100447.30
2023-01-04T22:33:00.368Z,100440.44
2023-01-04T22:35:27.030Z,100428.50
2023-01-04T22:37:53.784Z,100416.14
2023-01-04T22:40:20.476Z,100410.05
2023-01-04T22:42:47.123Z,100404.97
2023-01-04T22:45:13.861Z,100396.62
2023-01-04T22:47:40.574Z,100391.55
2023-01-04T22:50:07.723Z,100384.25
2023-01-04T22:52:34.467Z,100375.70
2023-01-04T22:55:01.121Z,100374.02
2023-01-04T22:57:27.795Z,100362.92
2023-01-04T22:59:54.483Z,100357.63
2023-01-04T23:02:21.141Z,100354.63
2023-01-04T23:04:47.763Z,100341.74
2023-01-04T23:07:14.489Z,100329.48
2023-01-04T23:09:41.411Z,100315.70
2023-01-04T23:12:08.142Z,100303.30
2023-01-04T23:14:34.893Z,100299.29
2023-01-04T23:17:01.873Z,100302.60
2023-01-04T23:19:28.883Z,100301.83
2023-01-04T23:21:55.661Z,100308.61
2023-01-04T23:24:22.369Z,100298.06
2023-01-04T23:26:49.080Z,100282.64
2023-01-04T23:29:15.751Z,100267.52
2023-01-04T23:31:42.459Z,100268.33
2023-01-04T23:34:10.265Z,100266.41
2023-01-04T23:36:38.296Z,100262.54
2023-01-04T23:39:07.337Z,100252.65
2023-01-04T23:41:46.511Z,100256.38
2023-01-04T23:44:16.745Z,100252.52
2023-01-04T23:46:43.721Z,100242.48
2023-01-04T23:49:11.277Z,100244.86
2023-01-04T23:51:37.989Z,100239.14
2023-01-04T23:54:05.897Z,100228.75
2023-01-04T23:56:32.605Z,100226.43
2023-01-04T23:58:59.263Z,100228.30
